Avondale Estates, Georgia
Current Conditions -  °F | °C
As of 1:53 PM on Friday 31 Oct 2014 (Local Time) from KPDK Reporting Station
Overcast Overcast  
Wind Chill: 60°   Ceiling: 9500
Heat Index: 60°   Visibility: 10mi
Dew Point: 40°   Wind: 10mph
Humidity: 47%   Direction: 290°WNW
Pressure: 29.9"   Gusts: NA
Location:  33.77°N, 84.27°W
Report Text: KPDK 311753Z 29009KT 10SM FEW080 OVC095 16/04 A2990 RMK AO2 SLP126 T01560044 10167 20044 58014
Loading
Personal Weather Stations






























Interactive Weather Map
Tropical Storm Tracking
New forecast layout! Learn more

10-Day Weather Forecast

Advertisements
Track Severe Weather on mobile